createdAt,value
2023-03-26T00:02:04.069Z,1.15
2023-03-26T00:04:33.772Z,0.85
2023-03-26T00:07:03.313Z,0.90
2023-03-26T00:09:31.464Z,0.68
2023-03-26T00:11:59.550Z,0.90
2023-03-26T00:14:29.106Z,0.55
2023-03-26T00:16:57.336Z,1.20
2023-03-26T00:19:25.602Z,0.98
2023-03-26T00:21:53.726Z,0.80
2023-03-26T00:24:29.468Z,1.02
2023-03-26T00:26:57.595Z,0.65
2023-03-26T00:29:28.158Z,1.13
2023-03-26T00:31:56.396Z,0.88
2023-03-26T00:34:24.960Z,1.50
2023-03-26T00:36:54.871Z,1.50
2023-03-26T00:39:24.523Z,0.80
2023-03-26T00:41:54.720Z,0.90
2023-03-26T00:44:23.352Z,0.60
2023-03-26T00:46:51.520Z,1.58
2023-03-26T00:49:19.577Z,0.70
2023-03-26T00:51:47.802Z,1.35
2023-03-26T00:54:15.874Z,0.60
2023-03-26T00:56:45.454Z,0.65
2023-03-26T00:59:13.608Z,1.08
2023-03-26T01:01:41.957Z,1.02
2023-03-26T01:04:31.215Z,1.38
2023-03-26T01:07:04.142Z,1.25
2023-03-26T01:09:36.579Z,1.05
2023-03-26T01:12:09.829Z,0.85
2023-03-26T01:14:38.988Z,0.77
2023-03-26T01:17:09.266Z,0.68
2023-03-26T01:19:45.869Z,0.95
2023-03-26T01:22:17.410Z,1.15
2023-03-26T01:24:53.133Z,1.65
2023-03-26T01:27:29.084Z,0.82
2023-03-26T01:30:05.322Z,1.23
2023-03-26T01:32:44.918Z,0.57
2023-03-26T01:35:25.525Z,0.73
2023-03-26T01:38:10.581Z,0.73
2023-03-26T01:40:47.253Z,1.10
2023-03-26T01:43:26.183Z,0.90
2023-03-26T01:45:55.896Z,1.17
2023-03-26T01:48:31.860Z,0.90
2023-03-26T01:51:00.168Z,1.05
2023-03-26T01:53:28.681Z,0.65
2023-03-26T01:56:05.110Z,1.13
2023-03-26T01:58:39.162Z,0.80
2023-03-26T02:01:17.410Z,0.70
2023-03-26T02:03:52.179Z,1.00
2023-03-26T02:06:30.787Z,0.80
2023-03-26T02:09:04.478Z,0.95
2023-03-26T02:11:35.872Z,0.82
2023-03-26T02:14:07.959Z,0.73
2023-03-26T02:16:36.354Z,0.95
2023-03-26T02:19:05.598Z,0.70
2023-03-26T02:21:34.286Z,0.77
2023-03-26T02:24:04.300Z,1.23
2023-03-26T02:26:37.751Z,1.33
2023-03-26T02:29:12.403Z,1.20
2023-03-26T02:31:43.419Z,1.02
2023-03-26T02:34:11.684Z,1.23
2023-03-26T02:36:47.142Z,1.35
2023-03-26T02:39:15.687Z,1.00
2023-03-26T02:41:52.085Z,1.33
2023-03-26T02:44:20.658Z,1.08
2023-03-26T02:47:07.285Z,1.05
2023-03-26T02:49:37.908Z,1.27
2023-03-26T02:52:06.824Z,1.05
2023-03-26T02:54:37.119Z,0.98
2023-03-26T02:57:17.100Z,1.15
2023-03-26T03:00:06.503Z,1.08
2023-03-26T03:02:38.368Z,1.17
2023-03-26T03:05:32.655Z,1.85
2023-03-26T03:08:18.601Z,1.17
2023-03-26T03:11:09.874Z,1.25
2023-03-26T03:13:46.334Z,1.27
2023-03-26T03:16:18.898Z,1.65
2023-03-26T03:18:54.336Z,1.70
2023-03-26T03:21:24.107Z,1.70
2023-03-26T03:23:52.337Z,1.10
2023-03-26T03:26:27.708Z,1.38
2023-03-26T03:28:58.784Z,1.52
2023-03-26T03:31:28.429Z,1.48
2023-03-26T03:34:02.626Z,0.98
2023-03-26T03:36:38.505Z,1.25
2023-03-26T03:39:16.972Z,0.80
2023-03-26T03:41:45.892Z,1.70
2023-03-26T03:44:17.861Z,0.93
2023-03-26T03:46:49.192Z,0.68
2023-03-26T03:49:17.593Z,0.90
2023-03-26T03:51:45.811Z,1.15
2023-03-26T03:54:23.039Z,0.90
2023-03-26T03:57:09.117Z,1.17
2023-03-26T03:59:52.454Z,0.85
2023-03-26T04:02:26.412Z,1.52
2023-03-26T04:04:59.342Z,1.10
2023-03-26T04:07:31.180Z,1.10
2023-03-26T04:10:18.101Z,1.00
2023-03-26T04:13:04.562Z,0.80
2023-03-26T04:15:54.982Z,0.80
2023-03-26T04:18:24.496Z,0.50
2023-03-26T04:20:52.576Z,0.60
2023-03-26T04:23:26.771Z,0.80
2023-03-26T04:26:05.177Z,0.50
2023-03-26T04:28:56.642Z,0.30
2023-03-26T04:31:30.525Z,0.38
2023-03-26T04:34:06.797Z,0.35
2023-03-26T04:36:42.400Z,0.30
2023-03-26T04:39:13.329Z,0.40
2023-03-26T04:42:00.462Z,0.30
2023-03-26T04:44:35.693Z,0.20
2023-03-26T04:47:10.593Z,0.15
2023-03-26T04:49:45.757Z,0.22
2023-03-26T04:52:16.218Z,0.10
2023-03-26T04:55:03.175Z,0.20
2023-03-26T04:57:38.089Z,0.20
2023-03-26T05:00:16.634Z,0.13
2023-03-26T05:02:51.030Z,0.17
2023-03-26T05:05:19.857Z,0.08
2023-03-26T05:07:48.039Z,0.10
2023-03-26T05:10:20.379Z,0.05
2023-03-26T05:12:59.518Z,0.10
2023-03-26T05:15:31.336Z,0.03
2023-03-26T05:18:00.802Z,0.15
2023-03-26T05:20:36.052Z,0.08
2023-03-26T05:23:07.476Z,0.00
2023-03-26T05:25:39.246Z,0.00
2023-03-26T05:28:14.925Z,0.25
2023-03-26T05:30:53.337Z,0.10
2023-03-26T05:33:24.669Z,0.10
2023-03-26T05:36:05.125Z,0.30
2023-03-26T05:38:35.005Z,0.10
2023-03-26T05:41:07.715Z,0.30
2023-03-26T05:43:38.372Z,0.28
2023-03-26T05:46:11.728Z,0.20
2023-03-26T05:48:41.458Z,0.08
2023-03-26T05:51:09.937Z,0.10
2023-03-26T05:53:42.619Z,0.40
2023-03-26T05:56:33.203Z,0.13
2023-03-26T05:59:19.962Z,0.17
2023-03-26T06:01:48.134Z,0.13
2023-03-26T06:04:18.973Z,0.35
2023-03-26T06:07:02.203Z,0.20
2023-03-26T06:09:30.640Z,0.40
2023-03-26T06:11:58.793Z,0.20
2023-03-26T06:14:27.516Z,0.20
2023-03-26T06:17:14.363Z,0.47
2023-03-26T06:20:02.183Z,0.30
2023-03-26T06:22:37.442Z,0.20
2023-03-26T06:25:23.876Z,0.05
2023-03-26T06:27:58.899Z,0.00
2023-03-26T06:30:47.136Z,0.32
2023-03-26T06:33:31.246Z,0.22
2023-03-26T06:36:03.134Z,0.05
2023-03-26T06:38:31.866Z,0.22
2023-03-26T06:41:04.417Z,0.30
2023-03-26T06:43:51.178Z,0.55
2023-03-26T06:46:38.367Z,0.30
2023-03-26T06:49:29.066Z,0.38
2023-03-26T06:52:15.984Z,0.25
2023-03-26T06:55:02.275Z,0.10
2023-03-26T06:57:50.523Z,0.30
2023-03-26T07:00:42.371Z,0.22
2023-03-26T07:03:29.572Z,0.28
2023-03-26T07:06:16.341Z,0.20
2023-03-26T07:09:05.081Z,0.10
2023-03-26T07:11:51.920Z,0.10
2023-03-26T07:14:38.838Z,0.17
2023-03-26T07:17:29.327Z,0.40
2023-03-26T07:20:12.531Z,0.30
2023-03-26T07:22:41.861Z,0.30
2023-03-26T07:25:30.292Z,0.00
2023-03-26T07:28:25.740Z,0.28
2023-03-26T07:31:27.283Z,0.30
2023-03-26T07:34:32.482Z,0.30
2023-03-26T07:37:22.915Z,0.20
2023-03-26T07:40:28.229Z,0.20
2023-03-26T07:43:33.260Z,0.43
2023-03-26T07:46:30.827Z,0.40
2023-03-26T07:49:20.386Z,0.22
2023-03-26T07:52:09.968Z,0.38
2023-03-26T07:54:58.410Z,0.52
2023-03-26T07:57:56.025Z,1.05
2023-03-26T08:00:41.668Z,1.30
2023-03-26T08:03:28.822Z,0.63
2023-03-26T08:06:06.451Z,0.60
2023-03-26T08:08:54.846Z,0.30
2023-03-26T08:17:02.776Z,0.93
2023-03-26T08:19:54.180Z,1.20
2023-03-26T08:22:28.098Z,1.27
2023-03-26T08:25:17.770Z,1.92
2023-03-26T08:27:54.025Z,1.92
2023-03-26T08:30:24.457Z,2.67
2023-03-26T08:32:57.276Z,3.88
2023-03-26T08:35:26.515Z,4.43
2023-03-26T08:37:55.086Z,4.43
2023-03-26T08:40:45.526Z,4.40
2023-03-26T08:43:40.287Z,3.88
2023-03-26T08:46:45.623Z,5.43
2023-03-26T08:49:39.586Z,4.78
2023-03-26T08:52:35.566Z,3.83
2023-03-26T08:55:32.284Z,4.75
2023-03-26T08:58:37.682Z,3.97
2023-03-26T09:01:22.770Z,4.05
2023-03-26T09:04:14.524Z,4.97
2023-03-26T09:07:09.918Z,4.40
2023-03-26T09:10:09.518Z,3.80
2023-03-26T09:13:09.995Z,3.05
2023-03-26T09:16:15.301Z,2.88
2023-03-26T09:19:04.289Z,4.38
2023-03-26T09:21:58.688Z,3.58
2023-03-26T09:24:58.627Z,3.08
2023-03-26T09:27:38.040Z,2.75
2023-03-26T09:30:31.452Z,2.30
2023-03-26T09:33:19.020Z,2.15
2023-03-26T09:35:54.186Z,2.35
2023-03-26T09:38:37.385Z,2.33
2023-03-26T09:41:12.170Z,2.70
2023-03-26T09:44:12.641Z,1.65
2023-03-26T09:46:57.170Z,0.63
2023-03-26T09:49:42.823Z,0.55
2023-03-26T09:52:23.758Z,0.35
2023-03-26T09:55:15.514Z,0.40
2023-03-26T09:58:02.291Z,0.28
2023-03-26T10:00:40.971Z,0.50
2023-03-26T10:03:22.257Z,0.35
2023-03-26T10:06:09.782Z,0.88
2023-03-26T10:08:50.503Z,0.60
2023-03-26T10:11:28.241Z,0.80
2023-03-26T10:14:06.034Z,0.90
2023-03-26T10:16:47.365Z,1.25
2023-03-26T10:19:31.730Z,0.90
2023-03-26T10:22:11.462Z,0.98
2023-03-26T10:25:02.677Z,0.95
2023-03-26T10:27:45.087Z,0.90
2023-03-26T10:30:29.258Z,1.38
2023-03-26T10:33:07.837Z,0.65
2023-03-26T10:35:48.292Z,0.88
2023-03-26T10:38:29.679Z,0.60
2023-03-26T10:41:05.114Z,1.48
2023-03-26T10:44:13.006Z,0.43
2023-03-26T10:46:56.399Z,1.25
2023-03-26T10:49:42.134Z,0.75
2023-03-26T10:52:16.101Z,0.80
2023-03-26T10:54:54.453Z,0.55
2023-03-26T10:57:30.738Z,0.43
2023-03-26T11:00:03.042Z,1.20
2023-03-26T11:02:43.112Z,0.95
2023-03-26T11:05:27.638Z,0.93
2023-03-26T11:08:03.243Z,0.95
2023-03-26T11:10:47.929Z,0.80
2023-03-26T11:13:26.794Z,0.68
2023-03-26T11:16:02.248Z,1.02
2023-03-26T11:18:39.444Z,0.75
2023-03-26T11:21:18.654Z,1.25
2023-03-26T11:24:06.429Z,1.33
2023-03-26T11:26:46.313Z,1.17
2023-03-26T11:29:32.701Z,1.48
2023-03-26T11:32:07.361Z,1.58
2023-03-26T11:34:39.865Z,1.50
2023-03-26T11:37:17.608Z,1.30
2023-03-26T11:39:53.475Z,1.25
2023-03-26T11:42:25.584Z,1.80
2023-03-26T11:44:58.226Z,0.82
2023-03-26T11:47:32.973Z,1.63
2023-03-26T11:50:04.782Z,2.10
2023-03-26T11:52:33.014Z,1.42
2023-03-26T11:55:01.093Z,1.60
2023-03-26T11:57:33.383Z,1.40
2023-03-26T12:00:08.362Z,1.20
2023-03-26T12:02:42.076Z,1.10
2023-03-26T12:05:19.444Z,1.27
2023-03-26T12:07:53.043Z,1.48
2023-03-26T12:10:25.670Z,1.77
2023-03-26T12:13:15.447Z,0.65
2023-03-26T12:15:44.821Z,1.50
2023-03-26T12:18:32.100Z,1.83
2023-03-26T12:21:08.812Z,1.73
2023-03-26T12:23:45.588Z,2.25
2023-03-26T12:26:36.983Z,1.38
2023-03-26T12:29:09.380Z,1.30
2023-03-26T12:31:51.117Z,2.00
2023-03-26T12:37:27.854Z,3.05
2023-03-26T12:40:16.014Z,2.13
2023-03-26T12:44:54.027Z,0.80
2023-03-26T12:45:44.316Z,1.45
2023-03-26T12:48:15.653Z,1.23
2023-03-26T12:50:59.266Z,1.55
2023-03-26T12:53:40.190Z,1.58
2023-03-26T12:56:19.923Z,1.20
2023-03-26T12:59:08.530Z,1.00
2023-03-26T13:01:50.442Z,1.55
2023-03-26T13:04:52.049Z,1.17
2023-03-26T13:07:44.586Z,0.75
2023-03-26T13:10:40.983Z,0.90
2023-03-26T13:13:25.279Z,0.80
2023-03-26T13:15:54.886Z,0.90
2023-03-26T13:18:36.457Z,0.85
2023-03-26T13:21:11.384Z,0.50
2023-03-26T13:23:51.431Z,1.30
2023-03-26T13:26:37.089Z,1.15
2023-03-26T13:29:14.503Z,1.10
2023-03-26T13:31:50.181Z,1.00
2023-03-26T13:34:27.719Z,1.05
2023-03-26T13:37:10.993Z,1.02
2023-03-26T13:39:50.234Z,0.93
2023-03-26T13:42:36.751Z,0.85
2023-03-26T13:45:15.979Z,1.27
2023-03-26T13:47:48.096Z,0.98
2023-03-26T13:50:23.763Z,0.68
2023-03-26T13:52:56.052Z,0.70
2023-03-26T13:55:29.433Z,1.17
2023-03-26T13:58:05.071Z,1.05
2023-03-26T14:00:54.643Z,1.25
2023-03-26T14:03:30.785Z,1.20
2023-03-26T14:06:05.699Z,1.63
2023-03-26T14:08:40.640Z,1.33
2023-03-26T14:11:13.868Z,0.85
2023-03-26T14:13:50.092Z,1.08
2023-03-26T14:16:22.624Z,1.02
2023-03-26T14:18:59.345Z,1.40
2023-03-26T14:21:49.876Z,1.23
2023-03-26T14:24:44.490Z,1.00
2023-03-26T14:27:24.896Z,0.82
2023-03-26T14:30:21.797Z,0.90
2023-03-26T14:33:04.133Z,1.48
2023-03-26T14:35:37.866Z,0.80
2023-03-26T14:40:59.200Z,0.88
2023-03-26T14:43:51.132Z,0.63
2023-03-26T14:46:35.630Z,1.05
2023-03-26T14:49:29.102Z,1.13
2023-03-26T14:52:03.656Z,1.38
2023-03-26T14:54:38.153Z,0.70
2023-03-26T14:57:39.942Z,0.77
2023-03-26T15:00:31.096Z,1.50
2023-03-26T15:03:38.703Z,1.10
2023-03-26T15:06:39.909Z,1.35
2023-03-26T15:09:46.550Z,0.77
2023-03-26T15:12:30.340Z,0.90
2023-03-26T15:15:27.400Z,0.82
2023-03-26T15:18:27.458Z,0.90
2023-03-26T15:21:27.284Z,0.43
2023-03-26T15:24:21.311Z,0.80
2023-03-26T15:27:24.480Z,1.10
2023-03-26T15:30:16.216Z,1.58
2023-03-26T15:33:17.080Z,1.13
2023-03-26T15:36:17.404Z,1.23
2023-03-26T15:39:27.741Z,1.20
2023-03-26T15:42:03.944Z,1.42
2023-03-26T15:44:53.077Z,1.00
2023-03-26T15:47:43.840Z,1.67
2023-03-26T15:50:27.294Z,1.98
2023-03-26T15:53:04.775Z,1.77
2023-03-26T15:55:40.345Z,1.30
2023-03-26T15:58:17.048Z,1.80
2023-03-26T16:00:56.545Z,1.40
2023-03-26T16:03:34.281Z,1.45
2023-03-26T16:06:20.266Z,2.20
2023-03-26T16:08:56.056Z,2.15
2023-03-26T16:11:46.484Z,2.58
2023-03-26T16:14:23.184Z,2.50
2023-03-26T16:16:55.636Z,2.40
2023-03-26T16:20:03.492Z,1.77
2023-03-26T16:22:57.555Z,2.20
2023-03-26T16:25:30.520Z,2.20
2023-03-26T16:28:27.564Z,2.17
2023-03-26T16:31:37.229Z,1.38
2023-03-26T16:34:40.387Z,2.28
2023-03-26T16:37:39.550Z,1.70
2023-03-26T16:40:45.067Z,2.65
2023-03-26T16:43:29.729Z,2.30
2023-03-26T16:46:06.874Z,2.55
2023-03-26T16:48:42.401Z,2.55
2023-03-26T16:51:18.685Z,2.05
2023-03-26T16:53:58.116Z,2.03
2023-03-26T16:56:34.777Z,2.17
2023-03-26T16:59:10.196Z,2.00
2023-03-26T17:01:48.288Z,2.00
2023-03-26T17:04:21.564Z,1.80
2023-03-26T17:07:01.723Z,1.80
2023-03-26T17:09:37.857Z,4.40
2023-03-26T17:12:15.924Z,2.03
2023-03-26T17:14:56.594Z,2.80
2023-03-26T17:17:36.876Z,1.90
2023-03-26T17:20:17.650Z,1.20
2023-03-26T17:22:48.874Z,1.40
2023-03-26T17:25:36.246Z,1.67
2023-03-26T17:28:33.924Z,1.38
2023-03-26T17:31:13.987Z,1.27
2023-03-26T17:33:43.191Z,1.48
2023-03-26T17:36:31.685Z,1.25
2023-03-26T17:39:07.365Z,1.30
2023-03-26T17:41:56.502Z,2.22
2023-03-26T17:44:45.046Z,2.20
2023-03-26T17:47:33.589Z,2.35
2023-03-26T17:50:06.432Z,2.83
2023-03-26T17:52:48.087Z,2.35
2023-03-26T17:55:20.980Z,2.45
2023-03-26T17:57:52.315Z,2.20
2023-03-26T18:00:23.876Z,2.10
2023-03-26T18:02:58.510Z,1.70
2023-03-26T18:05:30.441Z,1.52
2023-03-26T18:08:29.379Z,2.55
2023-03-26T18:11:18.108Z,2.00
2023-03-26T18:14:05.180Z,2.03
2023-03-26T18:16:38.937Z,1.70
2023-03-26T18:21:50.448Z,2.78
2023-03-26T18:24:24.449Z,1.98
2023-03-26T18:26:58.446Z,2.38
2023-03-26T18:29:29.267Z,2.40
2023-03-26T18:32:00.552Z,1.80
2023-03-26T18:34:31.937Z,1.70
2023-03-26T18:37:14.792Z,2.40
2023-03-26T18:39:43.617Z,1.88
2023-03-26T18:42:24.288Z,1.95
2023-03-26T18:45:00.023Z,2.17
2023-03-26T18:47:31.499Z,2.10
2023-03-26T18:50:03.637Z,3.28
2023-03-26T18:52:33.602Z,1.55
2023-03-26T18:55:04.477Z,2.08
2023-03-26T18:57:32.714Z,2.00
2023-03-26T19:00:20.063Z,1.67
2023-03-26T19:02:51.935Z,3.33
2023-03-26T19:05:22.306Z,3.42
2023-03-26T19:07:52.386Z,2.53
2023-03-26T19:10:21.321Z,3.13
2023-03-26T19:12:57.055Z,3.00
2023-03-26T19:15:26.805Z,1.92
2023-03-26T19:18:03.469Z,2.47
2023-03-26T19:20:41.385Z,2.33
2023-03-26T19:23:15.086Z,1.95
2023-03-26T19:28:20.899Z,2.17
2023-03-26T19:30:55.866Z,2.00
2023-03-26T19:33:26.248Z,1.58
2023-03-26T19:36:04.864Z,1.42
2023-03-26T19:38:43.135Z,1.33
2023-03-26T19:41:20.782Z,1.38
2023-03-26T19:43:51.068Z,2.15
2023-03-26T19:46:20.802Z,1.98
2023-03-26T19:48:50.030Z,1.85
2023-03-26T19:51:23.254Z,1.80
2023-03-26T19:53:55.109Z,1.52
2023-03-26T19:56:23.671Z,0.82
2023-03-26T19:58:52.538Z,0.68
2023-03-26T20:01:23.723Z,1.25
2023-03-26T20:03:53.456Z,1.23
2023-03-26T20:06:34.009Z,1.88
2023-03-26T20:09:11.202Z,2.00
2023-03-26T20:11:40.852Z,1.55
2023-03-26T20:14:14.520Z,2.05
2023-03-26T20:16:45.275Z,1.60
2023-03-26T20:19:15.044Z,1.33
2023-03-26T20:21:45.876Z,1.42
2023-03-26T20:24:15.783Z,1.23
2023-03-26T20:26:44.225Z,1.30
2023-03-26T20:29:12.957Z,1.10
2023-03-26T20:31:42.555Z,0.93
2023-03-26T20:34:17.329Z,0.85
2023-03-26T20:36:47.829Z,1.17
2023-03-26T20:39:16.229Z,0.77
2023-03-26T20:41:48.367Z,1.25
2023-03-26T20:44:18.176Z,0.90
2023-03-26T20:46:48.587Z,0.82
2023-03-26T20:49:17.864Z,0.80
2023-03-26T20:51:48.884Z,1.33
2023-03-26T20:54:19.390Z,1.27
2023-03-26T20:56:49.120Z,1.98
2023-03-26T20:59:22.580Z,1.30
2023-03-26T21:01:52.065Z,0.82
2023-03-26T21:04:21.351Z,1.02
2023-03-26T21:06:53.227Z,0.93
2023-03-26T21:09:25.300Z,1.15
2023-03-26T21:12:00.533Z,1.20
2023-03-26T21:14:33.587Z,1.17
2023-03-26T21:17:02.466Z,1.20
2023-03-26T21:19:31.232Z,1.20
2023-03-26T21:22:11.314Z,1.13
2023-03-26T21:24:49.415Z,0.95
2023-03-26T21:27:26.741Z,1.30
2023-03-26T21:29:55.653Z,1.67
2023-03-26T21:32:24.315Z,1.15
2023-03-26T21:34:58.617Z,1.38
2023-03-26T21:37:29.001Z,1.05
2023-03-26T21:39:57.643Z,1.40
2023-03-26T21:42:27.118Z,1.50
2023-03-26T21:44:56.098Z,1.48
2023-03-26T21:47:24.551Z,1.25
2023-03-26T21:49:54.766Z,1.90
2023-03-26T21:52:23.955Z,1.92
2023-03-26T21:54:54.376Z,1.42
2023-03-26T21:57:37.783Z,1.08
2023-03-26T22:00:14.677Z,0.70
2023-03-26T22:02:56.304Z,0.60
2023-03-26T22:05:31.162Z,0.80
2023-03-26T22:08:02.977Z,1.17
2023-03-26T22:10:33.090Z,0.90
2023-03-26T22:13:01.279Z,0.70
2023-03-26T22:15:31.262Z,1.05
2023-03-26T22:18:03.203Z,0.98
2023-03-26T22:20:31.827Z,0.57
2023-03-26T22:23:00.985Z,0.82
2023-03-26T22:25:29.159Z,0.90
2023-03-26T22:27:58.610Z,0.75
2023-03-26T22:30:27.311Z,0.95
2023-03-26T22:32:55.732Z,1.10
2023-03-26T22:35:24.248Z,0.85
2023-03-26T22:37:52.637Z,0.95
2023-03-26T22:40:29.511Z,0.77
2023-03-26T22:42:58.869Z,1.20
2023-03-26T22:45:28.010Z,0.77
2023-03-26T22:48:03.938Z,0.80
2023-03-26T22:50:32.915Z,1.15
2023-03-26T22:53:01.074Z,0.90
2023-03-26T22:55:29.752Z,0.82
2023-03-26T22:57:59.486Z,1.10
2023-03-26T23:00:27.943Z,0.52
2023-03-26T23:03:00.124Z,0.93
2023-03-26T23:05:29.452Z,1.00
2023-03-26T23:07:58.313Z,1.17
2023-03-26T23:10:26.527Z,1.42
2023-03-26T23:12:54.826Z,1.20
2023-03-26T23:15:25.906Z,0.98
2023-03-26T23:17:55.128Z,1.02
2023-03-26T23:20:23.469Z,0.80
2023-03-26T23:22:52.512Z,0.85
2023-03-26T23:25:21.281Z,0.80
2023-03-26T23:27:50.584Z,0.73
2023-03-26T23:30:19.412Z,0.35
2023-03-26T23:32:48.981Z,0.68
2023-03-26T23:35:17.263Z,0.82
2023-03-26T23:37:45.403Z,1.00
2023-03-26T23:40:14.350Z,1.05
2023-03-26T23:42:42.669Z,0.63
2023-03-26T23:45:12.368Z,0.93
2023-03-26T23:47:42.643Z,1.00
2023-03-26T23:50:13.106Z,0.63
2023-03-26T23:52:41.428Z,0.90
2023-03-26T23:55:10.024Z,1.02
2023-03-26T23:57:38.198Z,1.23
